createdAt,value
2023-03-11T00:03:28.494Z,100.00
2023-03-11T00:07:40.956Z,100.00
2023-03-11T00:11:53.433Z,100.00
2023-03-11T00:16:06.499Z,100.00
2023-03-11T00:20:26.724Z,100.00
2023-03-11T00:24:39.212Z,100.00
2023-03-11T00:28:51.677Z,97.96
2023-03-11T00:33:04.872Z,100.00
2023-03-11T00:37:17.269Z,100.00
2023-03-11T00:41:30.247Z,100.00
2023-03-11T00:45:43.034Z,100.00
2023-03-11T00:49:55.503Z,100.00
2023-03-11T00:54:07.948Z,100.00
2023-03-11T00:58:20.424Z,100.00
2023-03-11T01:02:32.877Z,100.00
2023-03-11T01:06:46.400Z,100.00
2023-03-11T01:11:01.243Z,100.00
2023-03-11T01:15:34.810Z,100.00
2023-03-11T01:19:47.334Z,100.00
2023-03-11T01:23:59.755Z,100.00
2023-03-11T01:28:12.624Z,100.00
2023-03-11T01:32:25.158Z,100.00
2023-03-11T01:36:37.632Z,100.00
2023-03-11T01:40:52.684Z,100.00
2023-03-11T01:46:03.346Z,97.67
2023-03-11T01:50:16.118Z,89.30
2023-03-11T01:54:34.924Z,89.26
2023-03-11T01:58:54.908Z,91.98
2023-03-11T02:03:15.014Z,90.95
2023-03-11T02:07:27.524Z,94.05
2023-03-11T02:11:40.123Z,95.88
2023-03-11T02:15:53.116Z,95.00
2023-03-11T02:20:43.790Z,96.50
2023-03-11T02:25:54.680Z,99.07
2023-03-11T02:30:08.579Z,98.21
2023-03-11T02:34:31.583Z,98.10
2023-03-11T02:38:44.143Z,96.81
2023-03-11T02:43:07.923Z,100.00
2023-03-11T02:47:20.390Z,100.00
2023-03-11T02:51:32.889Z,100.00
2023-03-11T02:55:45.356Z,100.00
2023-03-11T02:59:57.817Z,100.00
2023-03-11T03:04:14.040Z,100.00
2023-03-11T03:08:26.617Z,100.00
2023-03-11T03:12:39.178Z,99.63
2023-03-11T03:16:58.342Z,100.00
2023-03-11T03:21:11.050Z,100.00
2023-03-11T03:25:23.561Z,100.00
2023-03-11T03:29:36.022Z,100.00
2023-03-11T03:33:48.496Z,100.00
2023-03-11T03:38:04.224Z,100.00
2023-03-11T03:42:16.663Z,100.00
2023-03-11T03:46:29.377Z,100.00
2023-03-11T03:50:41.900Z,100.00
2023-03-11T03:54:54.415Z,100.00
2023-03-11T03:59:07.034Z,100.00
2023-03-11T04:03:19.529Z,100.00
2023-03-11T04:07:32.000Z,100.00
2023-03-11T04:11:54.501Z,100.00
2023-03-11T04:16:08.804Z,100.00
2023-03-11T04:20:21.476Z,100.00
2023-03-11T04:24:33.943Z,100.00
2023-03-11T04:28:51.802Z,100.00
2023-03-11T04:33:04.396Z,100.00
2023-03-11T04:37:16.869Z,100.00
2023-03-11T04:41:29.335Z,100.00
2023-03-11T04:45:52.387Z,100.00
2023-03-11T04:50:05.791Z,100.00
2023-03-11T04:54:18.238Z,100.00
2023-03-11T04:58:30.698Z,100.00
2023-03-11T05:02:43.694Z,100.00
2023-03-11T05:06:56.192Z,100.00
2023-03-11T05:11:09.633Z,100.00
2023-03-11T05:15:32.368Z,100.00
2023-03-11T05:19:44.863Z,100.00
2023-03-11T05:23:57.290Z,100.00
2023-03-11T05:28:19.765Z,100.00
2023-03-11T05:32:32.457Z,100.00
2023-03-11T05:36:45.578Z,100.00
2023-03-11T05:40:58.051Z,100.00
2023-03-11T05:45:11.288Z,100.00
2023-03-11T05:49:24.026Z,100.00
2023-03-11T05:53:36.803Z,100.00
2023-03-11T05:57:53.064Z,100.00
2023-03-11T06:02:05.649Z,100.00
2023-03-11T06:06:18.586Z,100.00
2023-03-11T06:10:31.150Z,100.00
2023-03-11T06:14:43.667Z,100.00
2023-03-11T06:18:56.569Z,100.00
2023-03-11T06:23:09.192Z,100.00
2023-03-11T06:27:21.627Z,100.00
2023-03-11T06:31:38.218Z,100.00
2023-03-11T06:35:58.932Z,100.00
2023-03-11T06:40:12.097Z,100.00
2023-03-11T06:44:26.366Z,100.00
2023-03-11T06:48:39.129Z,100.00
2023-03-11T06:52:51.605Z,100.00
2023-03-11T06:57:04.458Z,100.00
2023-03-11T07:01:23.800Z,100.00
2023-03-11T07:05:36.379Z,100.00
2023-03-11T07:09:48.836Z,100.00
2023-03-11T07:14:01.297Z,100.00
2023-03-11T07:18:23.728Z,100.00
2023-03-11T07:22:46.283Z,100.00
2023-03-11T07:26:58.801Z,100.00
2023-03-11T07:31:16.601Z,100.00
2023-03-11T07:35:29.233Z,100.00
2023-03-11T07:39:41.745Z,100.00
2023-03-11T07:44:00.711Z,100.00
2023-03-11T07:48:13.957Z,100.00
2023-03-11T07:52:26.438Z,100.00
2023-03-11T07:56:39.260Z,100.00
2023-03-11T08:00:52.380Z,100.00
2023-03-11T08:05:05.845Z,100.00
2023-03-11T08:09:18.650Z,95.89
2023-03-11T08:13:31.084Z,95.94
2023-03-11T08:17:43.561Z,91.18
2023-03-11T08:21:56.080Z,92.44
2023-03-11T08:26:12.443Z,89.15
2023-03-11T08:30:25.414Z,87.80
2023-03-11T08:34:40.226Z,87.99
2023-03-11T08:38:53.918Z,88.12
2023-03-11T08:43:06.660Z,85.04
2023-03-11T08:47:19.214Z,84.63
2023-03-11T08:51:34.383Z,84.49
2023-03-11T08:55:46.825Z,80.80
2023-03-11T08:59:59.445Z,78.11
2023-03-11T09:04:12.838Z,80.58
2023-03-11T09:08:27.038Z,78.32
2023-03-11T09:12:39.807Z,79.13
2023-03-11T09:16:52.341Z,81.40
2023-03-11T09:21:05.073Z,73.73
2023-03-11T09:25:17.838Z,70.89
2023-03-11T09:29:30.625Z,69.71
2023-03-11T09:33:44.429Z,68.64
2023-03-11T09:37:57.082Z,71.30
2023-03-11T09:43:13.496Z,69.94
2023-03-11T09:48:02.951Z,70.59
2023-03-11T09:52:20.524Z,68.05
2023-03-11T09:56:36.384Z,71.91
2023-03-11T10:00:52.927Z,68.61
2023-03-11T10:05:23.018Z,63.83
2023-03-11T10:09:49.787Z,62.43
2023-03-11T10:14:44.304Z,62.14
2023-03-11T10:19:28.969Z,58.63
2023-03-11T10:24:16.908Z,56.47
2023-03-11T10:28:53.825Z,57.91
2023-03-11T10:34:05.102Z,55.51
2023-03-11T10:38:36.784Z,63.40
2023-03-11T10:42:50.457Z,63.96
2023-03-11T10:47:23.758Z,60.12
2023-03-11T10:51:36.918Z,59.58
2023-03-11T10:55:56.487Z,64.86
2023-03-11T11:00:13.117Z,62.49
2023-03-11T11:04:41.534Z,61.17
2023-03-11T11:09:11.799Z,60.52
2023-03-11T11:13:31.973Z,58.63
2023-03-11T11:17:48.334Z,57.64
2023-03-11T11:22:06.230Z,61.17
2023-03-11T11:26:28.834Z,63.51
2023-03-11T11:31:07.361Z,56.41
2023-03-11T11:35:22.903Z,57.39
2023-03-11T11:39:52.268Z,55.34
2023-03-11T11:44:07.147Z,54.57
2023-03-11T11:48:35.115Z,57.46
2023-03-11T11:52:58.392Z,57.07
2023-03-11T11:57:23.533Z,57.77
2023-03-11T12:01:59.192Z,55.84
2023-03-11T12:06:57.892Z,58.42
2023-03-11T12:11:20.932Z,59.73
2023-03-11T12:15:46.953Z,58.47
2023-03-11T12:20:12.104Z,57.49
2023-03-11T12:24:52.302Z,56.71
2023-03-11T12:29:26.949Z,53.71
2023-03-11T12:33:52.374Z,57.49
2023-03-11T12:38:14.065Z,58.66
2023-03-11T12:42:41.163Z,54.51
2023-03-11T12:47:03.351Z,54.14
2023-03-11T12:51:38.247Z,51.46
2023-03-11T12:56:21.965Z,53.90
2023-03-11T13:01:13.421Z,53.76
2023-03-11T13:06:08.346Z,52.40
2023-03-11T13:10:41.589Z,55.68
2023-03-11T13:15:19.454Z,63.83
2023-03-11T13:19:32.848Z,63.16
2023-03-11T13:23:45.376Z,56.00
2023-03-11T13:28:08.933Z,60.33
2023-03-11T13:32:55.111Z,66.01
2023-03-11T13:37:31.279Z,57.60
2023-03-11T13:41:45.588Z,53.46
2023-03-11T13:46:07.871Z,53.19
2023-03-11T13:50:31.099Z,50.79
2023-03-11T13:54:50.220Z,53.04
2023-03-11T13:59:34.506Z,50.97
2023-03-11T14:03:49.035Z,50.18
2023-03-11T14:08:24.206Z,51.85
2023-03-11T14:12:37.629Z,53.46
2023-03-11T14:16:50.190Z,48.39
2023-03-11T14:21:07.486Z,53.18
2023-03-11T14:25:25.456Z,56.86
2023-03-11T14:29:41.260Z,56.17
2023-03-11T14:34:14.665Z,48.16
2023-03-11T14:38:45.167Z,52.05
2023-03-11T14:54:54.343Z,54.56
2023-03-11T15:05:43.105Z,57.63
2023-03-11T15:09:57.122Z,59.15
2023-03-11T15:14:32.722Z,59.67
2023-03-11T15:18:45.223Z,60.27
2023-03-11T15:23:02.126Z,60.67
2023-03-11T15:27:44.654Z,59.59
2023-03-11T15:31:58.304Z,58.53
2023-03-11T15:36:40.216Z,58.60
2023-03-11T15:40:59.388Z,58.58
2023-03-11T15:45:17.334Z,59.40
2023-03-11T15:49:31.256Z,60.17
2023-03-11T15:53:43.701Z,60.72
2023-03-11T15:58:20.883Z,61.69
2023-03-11T16:02:33.765Z,62.53
2023-03-11T16:06:59.471Z,63.26
2023-03-11T16:11:19.592Z,64.45
2023-03-11T16:15:36.477Z,63.70
2023-03-11T16:19:55.410Z,63.62
2023-03-11T16:24:09.295Z,63.76
2023-03-11T16:28:21.877Z,66.42
2023-03-11T16:32:34.403Z,67.98
2023-03-11T16:36:48.254Z,66.30
2023-03-11T16:41:03.283Z,66.42
2023-03-11T16:45:18.608Z,67.27
2023-03-11T16:49:31.351Z,66.25
2023-03-11T16:53:43.912Z,66.69
2023-03-11T16:57:58.175Z,65.42
2023-03-11T17:02:12.668Z,67.32
2023-03-11T17:06:25.212Z,66.13
2023-03-11T17:10:44.274Z,66.11
2023-03-11T17:14:57.097Z,69.29
2023-03-11T17:19:09.694Z,73.04
2023-03-11T17:23:22.432Z,74.15
2023-03-11T17:27:34.980Z,73.47
2023-03-11T17:31:47.441Z,74.38
2023-03-11T17:36:08.289Z,73.85
2023-03-11T17:40:20.925Z,73.49
2023-03-11T17:44:50.040Z,74.78
2023-03-11T17:49:03.855Z,76.03
2023-03-11T17:53:16.384Z,77.77
2023-03-11T17:57:28.888Z,75.25
2023-03-11T18:01:41.347Z,77.29
2023-03-11T18:06:04.680Z,78.33
2023-03-11T18:10:17.596Z,80.77
2023-03-11T18:14:30.014Z,79.09
2023-03-11T18:18:43.744Z,83.89
2023-03-11T18:22:56.864Z,80.59
2023-03-11T18:27:09.311Z,84.65
2023-03-11T18:31:24.921Z,83.50
2023-03-11T18:35:37.435Z,83.20
2023-03-11T18:39:49.969Z,82.85
2023-03-11T18:44:03.539Z,82.64
2023-03-11T18:48:16.032Z,83.36
2023-03-11T18:52:29.020Z,85.53
2023-03-11T18:56:52.043Z,88.51
2023-03-11T19:01:14.688Z,93.62
2023-03-11T19:05:28.964Z,93.76
2023-03-11T19:09:50.812Z,100.00
2023-03-11T19:14:03.670Z,97.47
2023-03-11T19:18:16.470Z,96.85
2023-03-11T19:22:28.935Z,93.70
2023-03-11T19:26:45.305Z,97.70
2023-03-11T19:31:08.406Z,95.25
2023-03-11T19:35:22.712Z,94.67
2023-03-11T19:39:35.156Z,92.57
2023-03-11T19:43:48.590Z,90.52
2023-03-11T19:48:01.519Z,99.35
2023-03-11T19:52:14.461Z,95.99
2023-03-11T19:56:28.398Z,100.00
2023-03-11T20:00:42.523Z,100.00
2023-03-11T20:04:55.168Z,100.00
2023-03-11T20:09:07.842Z,100.00
2023-03-11T20:13:22.904Z,100.00
2023-03-11T20:17:35.521Z,100.00
2023-03-11T20:21:48.054Z,100.00
2023-03-11T20:26:00.837Z,100.00
2023-03-11T20:30:14.162Z,100.00
2023-03-11T20:34:26.682Z,100.00
2023-03-11T20:38:39.461Z,100.00
2023-03-11T20:42:52.056Z,100.00
2023-03-11T20:47:04.873Z,100.00
2023-03-11T20:51:21.096Z,100.00
2023-03-11T20:55:33.519Z,100.00
2023-03-11T20:59:45.984Z,100.00
2023-03-11T21:04:02.112Z,100.00
2023-03-11T21:08:23.554Z,100.00
2023-03-11T21:12:36.071Z,100.00
2023-03-11T21:16:49.154Z,100.00
2023-03-11T21:21:02.455Z,100.00
2023-03-11T21:25:15.180Z,100.00
2023-03-11T21:29:27.705Z,100.00
2023-03-11T21:33:41.848Z,100.00
2023-03-11T21:37:55.188Z,100.00
2023-03-11T21:42:08.001Z,100.00
2023-03-11T21:46:25.761Z,100.00
2023-03-11T21:50:42.224Z,100.00
2023-03-11T21:54:54.907Z,100.00
2023-03-11T21:59:08.587Z,100.00
2023-03-11T22:03:21.323Z,100.00
2023-03-11T22:07:43.894Z,100.00
2023-03-11T22:11:56.976Z,100.00
2023-03-11T22:16:09.741Z,100.00
2023-03-11T22:20:22.986Z,100.00
2023-03-11T22:24:35.471Z,100.00
2023-03-11T22:28:48.126Z,100.00
2023-03-11T22:33:00.591Z,100.00
2023-03-11T22:37:13.188Z,100.00
2023-03-11T22:41:29.787Z,100.00
2023-03-11T22:45:42.284Z,100.00
2023-03-11T22:49:54.776Z,100.00
2023-03-11T22:54:07.401Z,100.00
2023-03-11T22:58:21.601Z,100.00
2023-03-11T23:02:34.069Z,100.00
2023-03-11T23:06:46.500Z,100.00
2023-03-11T23:11:04.818Z,100.00
2023-03-11T23:15:19.626Z,100.00
2023-03-11T23:19:32.216Z,100.00
2023-03-11T23:23:44.767Z,100.00
2023-03-11T23:27:57.817Z,100.00
2023-03-11T23:32:12.721Z,100.00
2023-03-11T23:36:28.387Z,100.00
2023-03-11T23:40:42.355Z,100.00
2023-03-11T23:44:55.020Z,100.00
2023-03-11T23:49:07.466Z,100.00
2023-03-11T23:53:23.929Z,100.00
2023-03-11T23:57:37.459Z,100.00
